Time;durP1;ratioP1;P1;durP2;ratioP2;P2;SDS_P1;SDS_P2;PMS_P1;PMS_P2;Temp;Humidity;BMP_temperature;BMP_pressure;BME280_temperature;BME280_humidity;BME280_pressure;Samples;Min_cycle;Max_cycle;Signal;HPM_P1;HPM_P2
2021/05/26 00:01:05;;;;;;;3.47;1.00;;;;;;;12.14;48.21;99953.41;2201985;40;20301;-77
2021/05/26 00:02:37;;;;;;;5.18;1.13;;;;;;;12.23;48.04;99951.63;2201207;40;20049;-77
2021/05/26 00:04:11;;;;;;;3.63;1.23;;;;;;;12.32;47.74;99945.34;2204202;40;20113;-78
2021/05/26 00:05:44;;;;;;;6.93;2.10;;;;;;;12.40;47.92;99945.38;2201374;40;20551;-77
2021/05/26 00:07:15;;;;;;;5.80;1.60;;;;;;;12.42;48.02;99937.97;2202646;40;20030;-78
2021/05/26 00:08:47;;;;;;;3.55;1.10;;;;;;;12.43;48.04;99937.00;2201670;40;20031;-77
2021/05/26 00:10:18;;;;;;;3.70;1.10;;;;;;;12.47;47.72;99940.19;2200927;40;20151;-78
2021/05/26 00:11:49;;;;;;;3.38;1.10;;;;;;;12.50;48.07;99936.38;2184761;40;20054;-77
2021/05/26 00:13:21;;;;;;;4.38;1.27;;;;;;;12.54;47.53;99933.22;2202265;40;20054;-77
2021/05/26 00:14:53;;;;;;;3.20;0.95;;;;;;;12.46;47.82;99928.63;2201407;40;20039;-77
2021/05/26 00:16:25;;;;;;;5.38;1.40;;;;;;;12.40;48.11;99931.13;2202917;40;20034;-78
2021/05/26 00:17:56;;;;;;;6.30;1.02;;;;;;;12.35;48.28;99922.72;2202692;40;20050;-77
2021/05/26 00:19:28;;;;;;;3.05;1.20;;;;;;;12.33;48.45;99930.91;2204041;40;20062;-78
2021/05/26 00:21:01;;;;;;;5.35;1.40;;;;;;;12.30;48.53;99931.25;2202433;40;20619;-77
2021/05/26 00:22:32;;;;;;;5.00;1.25;;;;;;;12.24;48.61;99921.13;2202562;40;20027;-77
2021/05/26 00:24:04;;;;;;;4.25;1.10;;;;;;;12.22;48.87;99925.84;2200443;40;20634;-78
2021/05/26 00:25:35;;;;;;;5.70;1.50;;;;;;;12.18;48.96;99922.63;2202322;40;20054;-76
2021/05/26 00:27:06;;;;;;;3.97;1.20;;;;;;;12.12;49.20;99916.06;2202750;40;20055;-77
2021/05/26 00:28:39;;;;;;;3.70;1.10;;;;;;;12.08;49.42;99925.41;2206905;40;20054;-76
2021/05/26 00:30:11;;;;;;;3.80;1.20;;;;;;;12.04;49.36;99915.16;2205116;40;20038;-77
2021/05/26 00:31:42;;;;;;;6.88;1.45;;;;;;;12.04;49.58;99920.53;2203111;40;20078;-77
2021/05/26 00:33:14;;;;;;;5.15;1.40;;;;;;;12.01;49.70;99917.16;2201241;40;20034;-77
2021/05/26 00:34:45;;;;;;;3.85;1.25;;;;;;;12.02;49.67;99913.47;2202470;40;20049;-77
2021/05/26 00:36:18;;;;;;;3.40;0.98;;;;;;;12.04;49.72;99915.16;2200886;40;20042;-76
2021/05/26 00:37:49;;;;;;;3.55;1.23;;;;;;;12.08;49.76;99905.81;2202035;40;20088;-76
2021/05/26 00:39:20;;;;;;;5.30;1.20;;;;;;;12.15;49.51;99913.06;2199222;40;20610;-76
2021/05/26 00:40:51;;;;;;;3.35;1.00;;;;;;;12.23;49.43;99901.53;2204192;40;20038;-77
2021/05/26 00:42:23;;;;;;;4.18;1.00;;;;;;;12.27;49.01;99905.59;2201981;40;20406;-75
2021/05/26 00:43:55;;;;;;;5.18;1.13;;;;;;;12.31;48.92;99909.63;2201097;40;20061;-76
2021/05/26 00:45:26;;;;;;;5.10;1.27;;;;;;;12.38;48.77;99900.94;2199580;40;20043;-76
2021/05/26 00:46:58;;;;;;;4.72;0.98;;;;;;;12.43;48.62;99904.00;2201082;40;20422;-77
2021/05/26 00:48:29;;;;;;;3.42;0.95;;;;;;;12.45;48.43;99902.00;2201296;40;20038;-80
2021/05/26 00:50:00;;;;;;;3.25;0.98;;;;;;;12.46;48.55;99898.31;2201119;40;20061;-78
2021/05/26 00:51:32;;;;;;;4.40;1.00;;;;;;;12.47;48.49;99897.28;2200960;40;20426;-77
2021/05/26 00:53:05;;;;;;;4.80;1.15;;;;;;;12.46;48.48;99898.31;2200627;40;20124;-76
2021/05/26 00:54:36;;;;;;;4.47;1.45;;;;;;;12.41;48.58;99892.59;2201107;40;20034;-77
2021/05/26 00:56:07;;;;;;;2.70;0.70;;;;;;;12.39;48.62;99878.50;2200948;40;20363;-76
2021/05/26 00:57:39;;;;;;;4.20;1.33;;;;;;;12.41;48.57;99884.53;2198133;40;20114;-77
2021/05/26 00:59:11;;;;;;;3.33;1.02;;;;;;;12.45;48.43;99877.88;2200114;40;20636;-76
2021/05/26 01:00:42;;;;;;;3.70;0.82;;;;;;;12.41;48.55;99890.75;2199870;40;20371;-77
2021/05/26 01:02:13;;;;;;;5.45;1.02;;;;;;;12.38;48.63;99874.13;2200639;40;20053;-76
2021/05/26 01:03:45;;;;;;;3.85;1.08;;;;;;;12.35;48.72;99885.19;2200560;40;20046;-77
2021/05/26 01:05:17;;;;;;;4.57;1.10;;;;;;;12.38;48.69;99872.31;2201927;40;20046;-77
2021/05/26 01:06:49;;;;;;;4.05;1.00;;;;;;;12.39;48.69;99882.03;2201154;40;20034;-77
2021/05/26 01:08:21;;;;;;;4.07;1.20;;;;;;;12.37;48.73;99877.84;2203236;40;20101;-77
2021/05/26 01:09:52;;;;;;;4.40;0.80;;;;;;;12.36;48.80;99878.84;2201327;40;20038;-77
2021/05/26 01:11:23;;;;;;;3.17;0.80;;;;;;;12.35;48.73;99874.47;2201999;40;20061;-77
2021/05/26 01:12:55;;;;;;;2.40;0.80;;;;;;;12.32;49.01;99876.47;2201978;40;20404;-78
2021/05/26 01:14:26;;;;;;;4.55;1.15;;;;;;;12.33;49.02;99872.78;2191118;40;20038;-78
2021/05/26 01:15:58;;;;;;;3.42;0.75;;;;;;;12.38;48.87;99866.94;2174710;40;20125;-77
2021/05/26 01:17:29;;;;;;;3.50;0.90;;;;;;;12.43;48.93;99859.25;2197281;40;20042;-76
2021/05/26 01:19:00;;;;;;;4.25;1.05;;;;;;;12.41;48.94;99857.72;2199881;40;20109;-79
2021/05/26 01:20:32;;;;;;;3.17;0.80;;;;;;;12.41;48.89;99853.22;2200231;40;20039;-77
2021/05/26 01:22:07;;;;;;;3.47;0.95;;;;;;;12.45;48.91;99845.69;2202276;40;20298;-77
2021/05/26 01:23:41;;;;;;;6.15;1.02;;;;;;;12.48;48.96;99848.03;2196655;40;20326;-77
2021/05/26 01:25:13;;;;;;;3.00;0.80;;;;;;;12.45;49.07;99843.03;2201579;40;20053;-77
2021/05/26 01:26:45;;;;;;;2.97;1.00;;;;;;;12.43;49.18;99845.00;2199513;40;20038;-77
2021/05/26 01:28:16;;;;;;;2.83;0.80;;;;;;;12.38;49.45;99841.97;2202351;40;20143;-76
2021/05/26 01:29:48;;;;;;;3.53;1.15;;;;;;;12.40;49.41;99848.88;2202019;40;20061;-76
2021/05/26 01:31:20;;;;;;;4.05;0.95;;;;;;;12.40;49.54;99842.66;2202876;40;20468;-77
2021/05/26 01:32:51;;;;;;;4.70;1.00;;;;;;;12.43;49.42;99836.97;2200722;40;20046;-78
2021/05/26 01:34:22;;;;;;;2.88;0.85;;;;;;;12.45;49.54;99834.97;2203660;40;20050;-79
2021/05/26 01:35:54;;;;;;;3.63;0.80;;;;;;;12.46;49.56;99833.97;2200890;40;20034;-76
2021/05/26 01:37:25;;;;;;;4.13;0.90;;;;;;;12.45;49.69;99835.81;2202896;40;20042;-76
2021/05/26 01:38:57;;;;;;;3.80;0.95;;;;;;;12.45;49.73;99829.63;2200923;40;20077;-78
2021/05/26 01:40:28;;;;;;;4.05;0.98;;;;;;;12.43;49.80;99829.75;2202259;40;20042;-78
2021/05/26 01:42:00;;;;;;;2.80;0.80;;;;;;;12.43;49.89;99828.94;2188701;40;20118;-79
2021/05/26 01:43:32;;;;;;;2.78;0.77;;;;;;;12.41;50.05;99823.75;2203952;40;20042;-78
2021/05/26 01:45:05;;;;;;;4.03;0.95;;;;;;;12.39;49.82;99827.56;2200363;40;20094;-76
2021/05/26 01:46:37;;;;;;;4.03;1.00;;;;;;;12.39;49.99;99816.84;2201415;40;20054;-76
2021/05/26 01:48:09;;;;;;;2.88;1.00;;;;;;;12.39;50.08;99819.53;2192912;40;20054;-77
2021/05/26 01:49:39;;;;;;;4.10;0.80;;;;;;;12.40;50.03;99816.69;2200634;40;20035;-77
2021/05/26 01:51:11;;;;;;;3.78;0.85;;;;;;;12.42;50.27;99809.31;2200791;40;20132;-78
2021/05/26 01:52:43;;;;;;;5.68;1.13;;;;;;;12.42;50.40;99814.66;2203727;40;20058;-80
2021/05/26 01:54:15;;;;;;;2.50;0.68;;;;;;;12.42;50.48;99808.47;2203795;40;20452;-78
2021/05/26 01:55:46;;;;;;;3.63;0.98;;;;;;;12.45;50.59;99806.31;2202684;40;20039;-77
2021/05/26 01:57:17;;;;;;;3.28;0.95;;;;;;;12.46;50.71;99807.16;2200733;40;20034;-76
2021/05/26 01:58:49;;;;;;;3.20;0.90;;;;;;;12.46;50.95;99812.53;2201332;40;20065;-77
2021/05/26 02:00:21;;;;;;;4.32;0.98;;;;;;;12.38;51.36;99809.78;2200121;40;20053;-77
2021/05/26 02:01:53;;;;;;;3.78;1.00;;;;;;;12.29;51.86;99816.97;2202878;40;20046;-76
2021/05/26 02:03:24;;;;;;;2.90;0.90;;;;;;;12.20;52.25;99809.91;2200522;40;20042;-77
2021/05/26 02:04:55;;;;;;;4.82;1.52;;;;;;;12.17;52.51;99813.75;2203653;40;20058;-78
2021/05/26 02:06:27;;;;;;;3.30;0.90;;;;;;;12.15;52.58;99810.41;2202548;40;20049;-76
2021/05/26 02:08:00;;;;;;;2.97;0.90;;;;;;;12.14;52.85;99814.91;2199933;40;20039;-76
2021/05/26 02:09:32;;;;;;;3.40;0.90;;;;;;;12.13;53.02;99815.06;2203244;40;20096;-77
2021/05/26 02:12:53;;;;;;;6.13;1.60;;;;;;;12.09;53.96;99827.13;2201849;40;20038;-76
2021/05/26 02:14:24;;;;;;;4.18;1.20;;;;;;;12.00;54.89;99823.56;2201570;40;20053;-77
2021/05/26 02:15:55;;;;;;;3.63;0.98;;;;;;;11.90;55.51;99822.78;2202548;40;20061;-77
2021/05/26 02:17:28;;;;;;;4.35;1.17;;;;;;;11.82;56.50;99820.91;2202246;40;20050;-79
2021/05/26 02:18:59;;;;;;;4.68;1.10;;;;;;;11.75;57.43;99810.00;2205157;40;20042;-78
2021/05/26 02:20:30;;;;;;;3.88;1.27;;;;;;;11.68;57.97;99812.47;2205803;40;20038;-79
2021/05/26 02:22:02;;;;;;;2.92;0.90;;;;;;;11.61;58.49;99798.03;2206047;40;20044;-80
2021/05/26 02:23:34;;;;;;;5.80;1.40;;;;;;;11.58;59.12;99798.34;2203957;40;20030;-79
2021/05/26 02:25:07;;;;;;;4.18;1.00;;;;;;;11.55;59.41;99793.28;2203110;40;20367;-79
2021/05/26 02:26:39;;;;;;;4.18;1.10;;;;;;;11.55;59.83;99788.78;2182663;40;20054;-80
2021/05/26 02:28:10;;;;;;;3.83;0.88;;;;;;;11.52;60.29;99788.28;2203124;40;20054;-80
2021/05/26 02:29:42;;;;;;;2.92;0.95;;;;;;;11.50;60.04;99782.22;2199028;40;24195;-79
2021/05/26 02:31:13;;;;;;;4.05;1.67;;;;;;;11.54;60.61;99781.75;2200005;40;20039;-78
2021/05/26 02:32:44;;;;;;;3.53;1.00;;;;;;;11.54;60.09;99776.41;2197976;40;20041;-76
2021/05/26 02:34:16;;;;;;;4.30;1.00;;;;;;;11.54;60.10;99772.88;2204074;40;20042;-77
2021/05/26 02:35:47;;;;;;;5.38;1.13;;;;;;;11.57;60.06;99766.38;2206064;40;20048;-77
2021/05/26 02:37:18;;;;;;;4.68;1.30;;;;;;;11.57;60.19;99767.22;2205764;40;20314;-77
2021/05/26 02:38:50;;;;;;;5.25;1.20;;;;;;;11.61;59.98;99763.22;2202635;40;20049;-77
2021/05/26 02:40:21;;;;;;;3.03;1.30;;;;;;;11.66;59.88;99762.75;2203197;40;20105;-77
2021/05/26 02:41:53;;;;;;;3.15;0.90;;;;;;;11.70;59.91;99770.31;2205763;40;20090;-77
2021/05/26 02:43:24;;;;;;;3.80;1.20;;;;;;;11.77;60.11;99767.00;2205962;40;20034;-76
2021/05/26 02:44:55;;;;;;;2.85;1.20;;;;;;;11.79;60.13;99765.00;2204945;40;20038;-77
2021/05/26 02:46:27;;;;;;;3.47;0.98;;;;;;;11.76;60.09;99758.09;2208326;40;20034;-76
2021/05/26 02:47:59;;;;;;;5.50;1.33;;;;;;;11.76;60.09;99757.28;2207620;40;20057;-76
2021/05/26 02:49:31;;;;;;;5.38;1.90;;;;;;;11.73;60.25;99765.63;2205807;40;20030;-77
2021/05/26 02:51:03;;;;;;;3.78;1.20;;;;;;;11.71;60.15;99769.28;2207787;40;20123;-76
2021/05/26 02:52:35;;;;;;;2.65;0.93;;;;;;;11.71;60.08;99763.94;2210277;40;20026;-76
2021/05/26 02:54:08;;;;;;;5.97;1.30;;;;;;;11.73;60.18;99770.97;2207283;40;20330;-77
2021/05/26 02:55:40;;;;;;;6.05;1.10;;;;;;;11.73;60.12;99770.97;2208885;40;20090;-77
2021/05/26 02:57:11;;;;;;;4.22;1.08;;;;;;;11.73;60.11;99774.50;2206171;40;20402;-76
2021/05/26 02:58:42;;;;;;;3.25;1.20;;;;;;;11.74;59.78;99780.69;2212020;40;20045;-77
2021/05/26 03:00:18;;;;;;;4.85;1.23;;;;;;;11.79;59.96;99789.91;2209023;40;20034;-75
2021/05/26 03:01:50;;;;;;;3.75;1.17;;;;;;;11.81;60.24;99797.78;2209321;40;20050;-75
2021/05/26 03:03:20;;;;;;;3.40;1.00;;;;;;;11.83;60.14;99796.66;2206907;40;20034;-76
2021/05/26 03:04:52;;;;;;;3.80;1.10;;;;;;;11.85;60.38;99796.50;2208397;40;20038;-76
2021/05/26 03:06:23;;;;;;;5.68;1.15;;;;;;;11.84;60.70;99797.47;2205778;40;20042;-76
2021/05/26 03:07:54;;;;;;;3.10;1.08;;;;;;;11.81;60.64;99803.16;2206627;40;20034;-76
2021/05/26 03:09:26;;;;;;;5.15;1.05;;;;;;;11.80;60.87;99806.84;2204488;40;20050;-75
2021/05/26 03:10:58;;;;;;;3.22;1.00;;;;;;;11.80;60.99;99801.50;2208132;40;20034;-77
2021/05/26 03:12:29;;;;;;;4.22;1.05;;;;;;;11.80;61.06;99804.16;2207144;40;20528;-76
2021/05/26 03:14:01;;;;;;;4.00;1.10;;;;;;;11.75;61.11;99796.63;2207897;40;20066;-76
2021/05/26 03:15:33;;;;;;;3.67;0.88;;;;;;;11.67;61.49;99793.84;2207832;40;20230;-76
2021/05/26 03:17:04;;;;;;;4.40;1.17;;;;;;;11.64;61.68;99804.91;2210134;40;20395;-76
2021/05/26 03:18:35;;;;;;;4.95;1.00;;;;;;;11.60;61.90;99795.50;2206821;40;20042;-77
2021/05/26 03:20:10;;;;;;;3.33;1.08;;;;;;;11.62;61.86;99794.34;2210700;40;20053;-76
2021/05/26 03:21:42;;;;;;;3.45;1.25;;;;;;;11.57;62.00;99785.94;2207246;40;20034;-77
2021/05/26 03:23:13;;;;;;;2.35;0.80;;;;;;;11.67;62.39;99785.81;2208682;40;20547;-77
2021/05/26 03:24:45;;;;;;;4.18;1.25;;;;;;;11.67;62.25;99794.72;2196416;40;20172;-77
2021/05/26 03:26:16;;;;;;;3.85;1.30;;;;;;;11.65;62.42;99783.31;2192342;40;20479;-77
2021/05/26 03:27:48;;;;;;;3.25;0.95;;;;;;;11.65;62.46;99787.84;2192567;40;20038;-76
2021/05/26 03:29:19;;;;;;;4.43;1.20;;;;;;;11.69;62.33;99776.66;2190915;40;20320;-75
2021/05/26 03:30:50;;;;;;;3.75;1.02;;;;;;;11.77;62.23;99775.03;2193038;40;20031;-78
2021/05/26 03:32:22;;;;;;;3.55;1.17;;;;;;;11.75;62.29;99779.69;2201672;40;20058;-77
2021/05/26 03:33:54;;;;;;;4.72;1.00;;;;;;;11.68;62.19;99768.75;2202340;40;20128;-78
2021/05/26 03:35:26;;;;;;;8.73;1.50;;;;;;;11.68;62.21;99766.94;2201457;40;20400;-79
2021/05/26 03:36:57;;;;;;;2.28;0.90;;;;;;;11.71;62.12;99766.59;2203037;40;20403;-77
2021/05/26 03:38:29;;;;;;;4.55;1.15;;;;;;;11.76;61.86;99767.97;2186965;40;20046;-80
2021/05/26 03:40:00;;;;;;;3.67;1.13;;;;;;;11.82;61.50;99756.63;2195868;40;20050;-76
2021/05/26 03:41:32;;;;;;;3.90;1.08;;;;;;;11.85;61.25;99764.34;2196584;40;20065;-79
2021/05/26 03:43:04;;;;;;;4.55;1.05;;;;;;;11.85;60.76;99761.66;2204455;40;20062;-77
2021/05/26 03:44:39;;;;;;;3.42;1.00;;;;;;;11.85;60.58;99753.63;2202922;40;20026;-81
2021/05/26 03:46:10;;;;;;;10.80;1.15;;;;;;;11.82;60.04;99761.97;2208258;40;20093;-79
2021/05/26 03:47:42;;;;;;;4.47;1.15;;;;;;;11.81;60.05;99755.78;2179077;40;23121;-79
2021/05/26 03:49:24;;;;;;;4.57;1.00;;;;;;;11.86;60.15;99752.63;2196012;40;20043;-81
2021/05/26 03:51:00;;;;;;;4.45;1.00;;;;;;;11.90;59.96;99753.16;2199238;40;20105;-81
2021/05/26 03:52:43;;;;;;;3.67;0.70;;;;;;;11.89;59.90;99746.13;2202886;40;20039;-82
2021/05/26 03:54:18;;;;;;;3.45;0.90;;;;;;;11.89;59.92;99749.66;2200627;40;20051;-81
2021/05/26 03:55:52;;;;;;;5.30;1.27;;;;;;;11.85;60.08;99751.78;2202039;40;20412;-82
2021/05/26 03:57:39;;;;;;;5.35;0.98;;;;;;;11.83;60.11;99753.81;2199028;40;20046;-83
2021/05/26 03:59:10;;;;;;;4.93;1.25;;;;;;;11.81;60.02;99749.59;2202087;40;20031;-81
2021/05/26 04:00:42;;;;;;;4.15;1.27;;;;;;;11.85;60.13;99753.63;2138402;40;20060;-78
2021/05/26 04:02:18;;;;;;;4.70;1.38;;;;;;;11.86;60.40;99741.91;2199217;40;20109;-82
2021/05/26 04:03:52;;;;;;;2.45;0.80;;;;;;;11.89;60.25;99741.63;2152072;40;20044;-81
2021/05/26 04:05:24;;;;;;;2.95;0.90;;;;;;;11.94;60.16;99739.28;2182402;40;20493;-82
2021/05/26 04:06:57;;;;;;;4.40;0.90;;;;;;;12.00;60.13;99749.38;2194321;40;20043;-82
2021/05/26 04:08:30;;;;;;;6.30;1.20;;;;;;;11.98;60.29;99738.00;2193041;40;20046;-82
2021/05/26 04:10:08;;;;;;;6.53;1.17;;;;;;;11.94;60.30;99739.28;2194976;40;20055;-84
2021/05/26 04:11:41;;;;;;;7.28;1.25;;;;;;;11.94;60.42;99741.94;2193782;40;20036;-80
2021/05/26 04:13:20;;;;;;;2.88;1.02;;;;;;;11.93;60.37;99737.59;2196218;40;20031;-83
2021/05/26 04:14:53;;;;;;;3.80;1.17;;;;;;;11.92;60.48;99735.91;2192503;40;20051;-80
2021/05/26 04:16:24;;;;;;;4.82;1.20;;;;;;;11.90;60.41;99734.41;2194530;40;20031;-81
2021/05/26 04:21:09;;;;;;;4.85;1.25;;;;;;;11.83;60.53;99731.53;2186010;40;20282;-79
2021/05/26 04:22:40;;;;;;;6.65;1.15;;;;;;;11.82;60.72;99733.38;2195704;40;20050;-81
2021/05/26 04:24:12;;;;;;;4.63;0.95;;;;;;;11.84;61.06;99727.84;2176994;40;20054;-79
2021/05/26 04:25:48;;;;;;;4.93;1.08;;;;;;;11.80;61.48;99730.00;2205645;40;20027;-79
2021/05/26 04:27:20;;;;;;;3.75;1.20;;;;;;;11.79;61.74;99732.84;2173700;40;20054;-80
2021/05/26 04:28:52;;;;;;;6.07;1.20;;;;;;;11.77;61.86;99738.34;2198614;40;20034;-79
2021/05/26 04:30:24;;;;;;;5.68;1.05;;;;;;;11.73;62.13;99734.34;2201956;40;20042;-82
2021/05/26 04:31:56;;;;;;;4.15;0.93;;;;;;;11.73;62.20;99742.38;2209278;40;20034;-80
2021/05/26 04:33:29;;;;;;;5.20;1.65;;;;;;;11.71;62.39;99734.47;2206024;40;20054;-79
2021/05/26 04:35:02;;;;;;;2.08;0.63;;;;;;;11.71;62.39;99734.47;2207953;40;20039;-80
2021/05/26 04:36:33;;;;;;;6.25;0.93;;;;;;;11.71;62.50;99734.47;2204092;40;20048;-80
2021/05/26 04:38:05;;;;;;;3.40;1.17;;;;;;;11.70;62.62;99732.81;2201083;40;20031;-81
2021/05/26 04:39:36;;;;;;;3.75;1.10;;;;;;;11.77;63.01;99745.56;2200693;40;20058;-81
2021/05/26 04:41:08;;;;;;;3.00;0.85;;;;;;;11.81;62.89;99744.22;2204750;40;20030;-81
2021/05/26 04:42:40;;;;;;;3.30;1.00;;;;;;;11.82;62.92;99740.56;2199204;40;20039;-81
2021/05/26 04:44:11;;;;;;;7.85;1.00;;;;;;;11.80;63.15;99739.91;2200538;40;20063;-79
2021/05/26 04:45:43;;;;;;;4.28;0.95;;;;;;;11.76;63.14;99735.84;2176960;40;20047;-80
2021/05/26 04:47:15;;;;;;;4.15;1.27;;;;;;;11.74;63.16;99737.84;2202657;40;20190;-81
2021/05/26 04:48:46;;;;;;;4.32;1.17;;;;;;;11.71;62.94;99739.81;2177568;40;20051;-81
2021/05/26 04:50:18;;;;;;;5.00;1.15;;;;;;;11.75;63.81;99731.47;2195734;40;20043;-81
2021/05/26 04:51:51;;;;;;;3.38;0.80;;;;;;;11.73;63.75;99733.47;2165767;40;20479;-81
2021/05/26 04:53:22;;;;;;;5.30;1.38;;;;;;;11.73;63.79;99737.00;2182986;40;20032;-83
2021/05/26 04:55:01;;;;;;;5.85;1.73;;;;;;;11.69;64.29;99735.63;2199937;40;20099;-81
2021/05/26 04:56:43;;;;;;;5.32;1.30;;;;;;;11.58;64.67;99734.09;2202242;40;20477;-82
2021/05/26 04:58:34;;;;;;;4.10;1.20;;;;;;;11.54;64.97;99749.63;2206647;40;20037;-81
2021/05/26 05:00:07;;;;;;;5.10;1.25;;;;;;;11.51;65.23;99746.44;2193599;40;20098;-80
2021/05/26 05:01:46;;;;;;;4.60;1.20;;;;;;;11.50;65.38;99745.56;2194447;40;20046;-82
2021/05/26 05:05:21;;;;;;;6.55;1.85;;;;;;;11.49;66.00;99751.09;2196836;40;20035;-81
2021/05/26 05:06:53;;;;;;;4.75;1.50;;;;;;;11.44;66.27;99748.03;2194106;40;20035;-79
2021/05/26 05:08:24;;;;;;;4.85;1.40;;;;;;;11.43;66.50;99743.72;2194531;40;20050;-81
2021/05/26 05:10:23;;;;;;;6.97;1.35;;;;;;;11.41;66.83;99743.03;2197457;40;20035;-82
2021/05/26 05:12:19;;;;;;;4.40;1.38;;;;;;;11.41;67.19;99743.84;2191334;40;20054;-82
2021/05/26 05:13:57;;;;;;;4.95;1.35;;;;;;;11.36;67.46;99749.69;2202672;40;20038;-81
2021/05/26 05:15:29;;;;;;;5.00;1.48;;;;;;;11.34;67.74;99746.31;2196861;40;20495;-80
2021/05/26 05:17:00;;;;;;;4.10;1.10;;;;;;;11.31;67.94;99740.44;2196493;40;20066;-81
2021/05/26 05:18:32;;;;;;;3.97;1.00;;;;;;;11.27;68.15;99742.59;2193839;40;20430;-81
2021/05/26 05:20:04;;;;;;;4.55;1.38;;;;;;;11.20;68.47;99737.00;2200677;40;20066;-80
2021/05/26 05:21:35;;;;;;;5.72;1.38;;;;;;;11.22;68.72;99739.56;2201844;40;20122;-80
2021/05/26 05:23:34;;;;;;;4.70;0.98;;;;;;;11.19;68.92;99743.38;2208310;40;20090;-82
2021/05/26 05:25:39;;;;;;;4.20;1.15;;;;;;;11.14;69.36;99739.50;2208683;40;20137;-82
2021/05/26 05:27:15;;;;;;;4.40;1.40;;;;;;;11.16;69.54;99734.81;2210336;40;20089;-83
2021/05/26 05:31:15;;;;;;;4.82;1.70;;;;;;;11.12;70.18;99744.16;2209825;40;20054;-83
2021/05/26 05:32:46;;;;;;;4.22;1.73;;;;;;;11.08;70.67;99744.47;2206369;40;20075;-81
2021/05/26 05:34:17;;;;;;;4.85;2.00;;;;;;;11.01;70.82;99754.09;2208984;40;20089;-82
2021/05/26 05:36:33;;;;;;;7.10;1.60;;;;;;;10.96;71.05;99740.34;2194767;40;20055;-83
2021/05/26 05:48:29;;;;;;;5.47;2.90;;;;;;;11.01;72.24;99754.09;2222177;40;20577;-82
2021/05/26 05:50:14;;;;;;;6.43;2.03;;;;;;;10.97;72.66;99752.72;2209791;40;20026;-82
2021/05/26 05:51:58;;;;;;;5.28;1.77;;;;;;;10.98;72.86;99742.88;2165611;40;20116;-82
2021/05/26 05:53:29;;;;;;;4.93;1.15;;;;;;;10.93;73.22;99748.69;2194496;40;20027;-82
2021/05/26 05:55:01;;;;;;;7.55;1.70;;;;;;;10.90;73.50;99746.31;2197836;40;20463;-82
2021/05/26 05:56:32;;;;;;;6.07;1.73;;;;;;;10.86;73.61;99753.00;2193082;40;20047;-83
2021/05/26 05:58:11;;;;;;;5.45;1.67;;;;;;;10.84;73.83;99752.28;2185869;40;20099;-81
2021/05/26 05:59:43;;;;;;;4.88;1.30;;;;;;;10.77;74.16;99752.88;2197964;40;20100;-82
2021/05/26 06:01:15;;;;;;;6.40;1.40;;;;;;;10.76;74.39;99751.25;2179898;40;20040;-83
2021/05/26 07:26:20;;;;;;;6.13;1.75;;;;;;;10.91;77.14;99731.97;3413669;23;21019;-82
2021/05/26 07:27:53;;;;;;;4.85;1.67;;;;;;;10.93;76.96;99724.63;2202558;40;20312;-83
2021/05/26 07:29:34;;;;;;;6.97;2.08;;;;;;;11.03;76.82;99729.88;2191574;40;20095;-86
2021/05/26 07:59:57;;;;;;;5.45;2.08;;;;;;;11.25;76.90;99715.13;2185181;40;20044;-82
2021/05/26 08:01:29;;;;;;;8.25;2.97;;;;;;;11.17;76.93;99720.44;2168250;41;20559;-84
2021/05/26 08:03:03;;;;;;;4.80;2.40;;;;;;;11.15;77.07;99717.06;2167827;40;20038;-82
2021/05/26 08:04:35;;;;;;;5.95;2.00;;;;;;;11.11;77.24;99710.38;2168266;41;20422;-82
2021/05/26 08:31:13;;;;;;;5.80;2.30;;;;;;;11.12;76.71;99701.34;2179889;40;20048;-83
2021/05/26 08:32:44;;;;;;;7.53;1.80;;;;;;;11.12;76.94;99696.00;2179108;40;20045;-84
2021/05/26 08:34:43;;;;;;;4.28;1.45;;;;;;;11.18;76.62;99690.00;2180808;40;20087;-83
2021/05/26 08:36:18;;;;;;;6.47;1.85;;;;;;;11.19;76.27;99692.53;2180141;41;20100;-81
2021/05/26 08:47:59;;;;;;;4.57;1.50;;;;;;;11.57;75.22;99686.91;2173151;41;20045;-82
2021/05/26 08:49:44;;;;;;;5.53;1.77;;;;;;;11.52;75.26;99690.06;2158713;41;20034;-81
2021/05/26 08:57:53;;;;;;;4.85;1.60;;;;;;;11.43;75.84;99687.50;2180272;40;20041;-82
2021/05/26 08:59:25;;;;;;;6.30;2.60;;;;;;;11.45;75.63;99690.84;2173034;41;20097;-82
2021/05/26 09:00:57;;;;;;;6.07;2.28;;;;;;;11.39;75.47;99693.16;2122314;41;20031;-82
2021/05/26 09:02:31;;;;;;;5.18;2.03;;;;;;;11.31;75.48;99694.94;2158223;41;20419;-84
2021/05/26 10:04:25;;;;;;;5.47;1.05;;;;;;;12.00;71.40;99658.28;2189158;40;20050;-83
2021/05/26 10:06:07;;;;;;;3.25;1.02;;;;;;;12.01;71.31;99667.19;2153248;40;21426;-84
2021/05/26 10:07:42;;;;;;;2.85;1.00;;;;;;;12.00;71.40;99663.63;2185957;40;20032;-83
2021/05/26 10:09:14;;;;;;;2.80;0.80;;;;;;;11.99;70.76;99656.63;2185614;40;20460;-82
2021/05/26 10:10:47;;;;;;;5.10;0.90;;;;;;;11.98;69.79;99656.78;2184981;41;20033;-85
2021/05/26 10:12:18;;;;;;;2.53;0.75;;;;;;;12.04;69.43;99660.66;2186147;40;20040;-82
2021/05/26 10:13:51;;;;;;;3.72;1.00;;;;;;;12.04;69.65;99657.97;2191885;40;20042;-83
2021/05/26 10:15:35;;;;;;;3.22;1.42;;;;;;;12.06;69.27;99664.00;2180512;40;20087;-83
2021/05/26 10:17:20;;;;;;;3.22;1.40;;;;;;;12.16;68.96;99659.34;2191868;40;20028;-84
2021/05/26 10:18:51;;;;;;;5.32;1.00;;;;;;;12.16;68.72;99653.97;2148401;40;20037;-81
2021/05/26 10:20:34;;;;;;;3.90;0.77;;;;;;;12.19;68.65;99661.66;2183527;40;20039;-82
2021/05/26 10:22:25;;;;;;;1.98;0.73;;;;;;;12.21;68.67;99658.84;2169613;41;20037;-82
2021/05/26 10:24:13;;;;;;;3.20;0.93;;;;;;;12.24;68.86;99653.13;2174898;40;20047;-84
2021/05/26 10:25:48;;;;;;;4.28;1.00;;;;;;;12.20;68.45;99655.31;2181699;41;20052;-82
2021/05/26 10:27:35;;;;;;;2.45;0.80;;;;;;;12.27;68.56;99667.06;2182694;40;20029;-81
2021/05/26 10:29:39;;;;;;;3.55;0.90;;;;;;;12.31;68.30;99649.63;2180155;41;20040;-78
2021/05/26 10:31:11;;;;;;;5.90;0.90;;;;;;;12.28;68.56;99644.59;2123389;41;20058;-81
2021/05/26 10:33:05;;;;;;;2.67;0.88;;;;;;;12.31;67.98;99648.81;2180602;40;20060;-80
2021/05/26 10:35:07;;;;;;;2.47;1.02;;;;;;;12.25;67.60;99647.63;2185788;41;20092;-83
2021/05/26 10:37:06;;;;;;;1.77;0.50;;;;;;;12.23;67.27;99646.94;2183807;40;20059;-81
2021/05/26 10:38:54;;;;;;;2.53;0.80;;;;;;;12.28;67.19;99647.28;2183278;40;20044;-82
2021/05/26 10:42:52;;;;;;;2.67;0.70;;;;;;;12.30;67.67;99639.09;2154074;40;20041;-81
2021/05/26 10:45:10;;;;;;;3.55;0.55;;;;;;;12.21;66.97;99648.94;2178461;40;20036;-81
2021/05/26 10:46:57;;;;;;;3.13;1.15;;;;;;;12.16;67.21;99651.31;2176413;41;20039;-80
2021/05/26 10:49:23;;;;;;;2.45;0.75;;;;;;;12.15;68.18;99649.63;2177630;41;20056;-81
2021/05/26 10:50:55;;;;;;;3.97;0.98;;;;;;;12.18;67.90;99641.25;2171737;41;20044;-81
2021/05/26 10:52:28;;;;;;;2.95;0.77;;;;;;;12.19;67.76;99645.59;2183453;41;20076;-80
2021/05/26 10:54:01;;;;;;;7.18;1.48;;;;;;;12.23;67.83;99640.75;2176470;41;20044;-82
2021/05/26 10:55:57;;;;;;;5.43;1.13;;;;;;;12.19;67.68;99640.22;2178399;41;20024;-80
2021/05/26 10:57:32;;;;;;;1.95;0.60;;;;;;;12.16;68.24;99633.38;2173768;41;20084;-80
2021/05/26 10:59:30;;;;;;;3.97;0.70;;;;;;;12.22;68.44;99633.72;2177530;40;20044;-80
2021/05/26 11:01:57;;;;;;;3.70;1.20;;;;;;;12.28;68.63;99636.56;2177816;41;20060;-80
2021/05/26 11:03:33;;;;;;;4.75;1.33;;;;;;;12.34;68.36;99632.38;2177324;40;20051;-80
2021/05/26 11:05:32;;;;;;;3.95;1.08;;;;;;;12.36;68.15;99640.28;2178775;41;20048;-81
2021/05/26 11:07:29;;;;;;;2.17;0.60;;;;;;;12.31;67.91;99641.59;2132457;41;20046;-80
2021/05/26 11:09:01;;;;;;;3.42;0.88;;;;;;;12.30;68.33;99628.38;2135953;41;20042;-79
2021/05/26 11:10:32;;;;;;;3.45;0.90;;;;;;;12.34;68.73;99643.09;2154165;41;20046;-79
2021/05/26 11:12:16;;;;;;;2.60;0.70;;;;;;;12.34;68.38;99637.75;2160069;41;20049;-80
2021/05/26 11:13:59;;;;;;;3.65;0.77;;;;;;;12.36;68.61;99635.75;2159658;41;20046;-81
2021/05/26 11:15:43;;;;;;;3.35;1.10;;;;;;;12.39;68.66;99618.47;2162212;41;20050;-81
2021/05/26 11:17:39;;;;;;;2.63;0.70;;;;;;;12.53;68.73;99638.41;2161496;41;20031;-80
2021/05/26 11:19:12;;;;;;;4.25;1.20;;;;;;;12.58;68.48;99623.50;2160067;41;20042;-78
2021/05/26 11:20:43;;;;;;;3.10;1.13;;;;;;;12.65;68.49;99634.41;2155202;41;27860;-79
2021/05/26 11:22:15;;;;;;;9.77;1.50;;;;;;;12.75;68.52;99628.88;2167981;41;20057;-81
2021/05/26 11:24:25;;;;;;;3.80;0.90;;;;;;;12.80;68.20;99634.56;2162714;40;20063;-82
2021/05/26 11:25:58;;;;;;;2.58;0.65;;;;;;;12.86;67.35;99620.47;2173662;41;20413;-82